Airfield :
LOGIN :

Register | Disclaimer

   EN    FR    IT 

 










Legend :    VFR   Marginal VFR   IFR   Intensive IFR   Very Intensive IFR
Visi :
Ceiling :
>= 8 km
>= 3000ft
5 to 8 km
1000 to 3000 ft
1500m to 5 km
500 to 1000 ft
800 to 1500m
200 to 500 ft
< 800m
< 200 ft
Symbols :   Thunderstorms  Fog  Heavy snow  Heavy precipitations  Wind > 20 kt
SIGMETs :     Misc.  Thunderstorms  Icing  Turbulence  Mountain Waves  Volcanic Ashes






- Airport Elevation : 392 ft
- IATA code : CDG


LFPG - Paris-Aeroport Charles De Gaulle

CURRENT METAR :
  • 021130Z 14005KT 050V210 CAVOK 23/08 Q1021 NOSIG

EXPIRED METARs :
  • 021100Z 16006KT 100V210 CAVOK 23/07 Q1021 NOSIG
  • 021030Z 15007KT 100V220 CAVOK 23/08 Q1021 NOSIG
  • 021000Z VRB04KT CAVOK 22/08 Q1021 NOSIG
  • 020930Z 18005KT 120V250 CAVOK 22/08 Q1021 NOSIG
  • 020900Z 20005KT 140V250 CAVOK 22/08 Q1021 NOSIG

TAF TAF LFPG
Valid from the 02 at 06:00 until the 03 at 12:00 UTC


020500Z 0206/0312 13005KT CAVOK TX26/0215Z TN13/0304Z
BECMG 0208/0210 19010KT
BECMG 0216/0218 26008KT
BECMG 0218/0220 36012KT
BECMG 0309/0311 29010KT
ATIS : +33 1 48 62 10 92



MET'MAP, your aeronautical weather chart ! - Copyright ORBIFLY December 2007 - Disclaimer

ORBIFLY MET'MAP TEAM :

Programming & Development : Alexandra Zaïnal
Original concept : Baudouin d'Aumeries
Technical & hardware support : Manuel Goepfert
Assistance : Marc-Olivier Méhu




SOURCES & CREDITS :

   NOAA